Time;durP1;ratioP1;P1;durP2;ratioP2;P2;SDS_P1;SDS_P2;PMS_P1;PMS_P2;Temp;Humidity;BMP_temperature;BMP_pressure;BME280_temperature;BME280_humidity;BME280_pressure;Samples;Min_cycle;Max_cycle;Signal;HPM_P1;HPM_P2
2022/05/05 00:01:47;;;;;;;8.10;3.70;;;7.80;99.90;;;;;;5002702;28;20033;-64
2022/05/05 00:04:13;;;;;;;8.25;3.83;;;7.80;99.90;;;;;;5006181;28;20034;-64
2022/05/05 00:06:39;;;;;;;9.98;3.97;;;7.70;99.90;;;;;;5005950;28;20450;-64
2022/05/05 00:09:04;;;;;;;9.35;3.90;;;7.70;99.90;;;;;;4991060;28;20149;-64
2022/05/05 00:14:24;;;;;;;9.80;3.60;;;7.70;99.90;;;;;;5004573;28;20069;-64
2022/05/05 00:16:53;;;;;;;11.82;4.40;;;7.70;99.90;;;;;;4987403;28;20045;-64
2022/05/05 00:19:19;;;;;;;10.30;4.20;;;7.70;99.90;;;;;;4989193;28;20050;-64
2022/05/05 00:21:45;;;;;;;10.70;3.78;;;7.60;99.90;;;;;;4991425;28;20042;-64
2022/05/05 00:24:11;;;;;;;7.28;3.28;;;7.70;99.90;;;;;;5008545;28;20030;-64
2022/05/05 00:26:37;;;;;;;9.23;4.05;;;7.60;99.90;;;;;;4988926;28;20042;-64
2022/05/05 00:29:02;;;;;;;8.88;4.03;;;7.50;99.90;;;;;;4997995;28;20076;-64
2022/05/05 00:31:28;;;;;;;8.73;3.60;;;7.60;99.90;;;;;;4996751;28;20034;-64
2022/05/05 00:33:53;;;;;;;9.52;3.78;;;7.50;99.90;;;;;;5001821;28;20377;-64
2022/05/05 00:36:19;;;;;;;12.43;3.75;;;7.50;99.90;;;;;;4980994;28;20038;-64
2022/05/05 00:38:45;;;;;;;12.63;3.53;;;7.50;99.90;;;;;;4967080;28;20468;-64
2022/05/05 00:41:10;;;;;;;5.20;2.47;;;7.50;99.90;;;;;;4980612;28;20444;-64
2022/05/05 00:43:36;;;;;;;7.13;2.90;;;7.50;99.90;;;;;;4981899;28;20049;-64
2022/05/05 00:46:05;;;;;;;11.95;3.97;;;7.50;99.90;;;;;;4978531;28;20057;-64
2022/05/05 00:48:31;;;;;;;14.73;3.97;;;7.50;99.90;;;;;;4989583;28;20046;-64
2022/05/05 00:50:57;;;;;;;10.85;3.85;;;7.50;99.90;;;;;;4987888;28;20044;-64
2022/05/05 00:53:23;;;;;;;8.73;3.40;;;7.50;99.90;;;;;;4982610;28;20622;-64
2022/05/05 00:55:54;;;;;;;9.75;2.95;;;7.40;99.90;;;;;;4997644;28;20049;-64
2022/05/05 00:58:20;;;;;;;5.60;2.47;;;7.40;99.90;;;;;;4985339;28;20042;-64
2022/05/05 01:00:46;;;;;;;9.93;3.22;;;7.50;99.90;;;;;;4997964;28;20535;-64
2022/05/05 01:03:12;;;;;;;10.85;3.42;;;7.50;99.90;;;;;;5005835;28;20079;-64
2022/05/05 01:05:38;;;;;;;5.35;3.10;;;7.50;99.90;;;;;;4998316;28;20446;-64
2022/05/05 01:08:05;;;;;;;10.65;4.07;;;7.40;99.90;;;;;;4979829;28;20038;-64
2022/05/05 01:10:32;;;;;;;6.78;3.80;;;7.40;99.90;;;;;;4998357;28;20053;-64
2022/05/05 01:12:58;;;;;;;6.47;3.38;;;7.40;99.90;;;;;;4981791;28;20054;-64
2022/05/05 01:15:24;;;;;;;7.93;3.67;;;7.40;99.90;;;;;;4996251;28;20049;-64
2022/05/05 01:17:50;;;;;;;12.27;3.90;;;7.50;99.90;;;;;;4994723;28;20535;-64
2022/05/05 01:20:17;;;;;;;10.30;3.97;;;7.50;99.90;;;;;;4975515;28;20072;-64
2022/05/05 01:22:43;;;;;;;9.40;4.93;;;7.40;99.90;;;;;;4976943;28;20045;-63
2022/05/05 01:28:13;;;;;;;10.75;4.82;;;7.30;99.90;;;;;;4942783;28;20049;-64
2022/05/05 01:30:45;;;;;;;10.40;4.53;;;7.20;99.90;;;;;;4974302;28;20160;-64
2022/05/05 01:33:20;;;;;;;11.00;4.43;;;7.30;99.90;;;;;;4976279;28;20674;-64
2022/05/05 01:35:49;;;;;;;16.73;5.55;;;7.30;99.90;;;;;;4975227;28;20119;-64
2022/05/05 01:38:17;;;;;;;10.65;3.90;;;7.30;99.90;;;;;;4993953;28;20042;-64
2022/05/05 01:40:48;;;;;;;13.20;4.18;;;7.30;99.90;;;;;;4975995;28;20057;-64
2022/05/05 01:43:15;;;;;;;7.40;4.70;;;7.20;99.90;;;;;;4995408;28;22200;-64
2022/05/05 01:45:41;;;;;;;9.30;4.03;;;7.20;99.90;;;;;;4976080;28;20115;-64
2022/05/05 01:48:07;;;;;;;11.55;4.45;;;7.20;99.90;;;;;;4975422;28;20815;-64
2022/05/05 01:50:33;;;;;;;10.95;4.68;;;7.20;99.90;;;;;;4977201;28;20050;-64
2022/05/05 01:53:00;;;;;;;12.15;5.22;;;7.30;99.90;;;;;;4975958;28;20045;-65
2022/05/05 01:55:26;;;;;;;9.15;4.40;;;7.30;99.90;;;;;;4977389;28;20049;-64
2022/05/05 01:57:52;;;;;;;9.85;4.35;;;7.30;99.90;;;;;;4973889;28;20042;-64
2022/05/05 02:00:18;;;;;;;10.98;4.78;;;7.30;99.90;;;;;;4992967;28;20088;-64
2022/05/05 02:02:45;;;;;;;11.57;5.68;;;7.30;99.90;;;;;;4995166;28;20034;-64
2022/05/05 02:05:11;;;;;;;12.45;4.60;;;7.30;99.90;;;;;;4975233;28;20046;-64
2022/05/05 02:07:38;;;;;;;9.65;5.47;;;7.30;99.90;;;;;;4993456;28;20095;-64
2022/05/05 02:10:05;;;;;;;11.63;5.38;;;7.30;99.90;;;;;;4977061;28;20109;-64
2022/05/05 02:12:32;;;;;;;10.65;5.43;;;7.30;99.90;;;;;;4992735;28;20037;-64
2022/05/05 02:14:57;;;;;;;10.85;4.72;;;7.30;99.90;;;;;;4993388;28;20114;-64
2022/05/05 02:17:24;;;;;;;11.68;5.75;;;7.20;99.90;;;;;;4992022;28;20227;-64
2022/05/05 02:19:49;;;;;;;12.20;5.40;;;7.30;99.90;;;;;;4994628;28;21049;-64
2022/05/05 02:22:15;;;;;;;14.10;5.53;;;7.20;99.90;;;;;;4974210;28;20046;-64
2022/05/05 02:24:41;;;;;;;14.43;6.45;;;7.20;99.90;;;;;;4976341;28;20041;-64
2022/05/05 02:27:08;;;;;;;11.30;5.47;;;7.20;99.90;;;;;;4972716;28;20496;-64
2022/05/05 02:29:36;;;;;;;13.30;5.78;;;7.20;99.90;;;;;;4992148;28;20064;-64
2022/05/05 02:32:02;;;;;;;9.63;5.40;;;7.20;99.90;;;;;;4975017;28;20129;-64
2022/05/05 02:34:28;;;;;;;10.98;5.78;;;7.10;99.90;;;;;;4976129;28;21629;-64
2022/05/05 02:39:37;;;;;;;14.30;6.10;;;7.10;99.90;;;;;;4992206;28;20081;-64
2022/05/05 02:42:03;;;;;;;14.15;5.53;;;7.10;99.90;;;;;;4993782;28;20954;-64
2022/05/05 02:44:29;;;;;;;15.05;5.53;;;7.10;99.90;;;;;;4976161;28;20568;-64
2022/05/05 02:46:55;;;;;;;7.55;5.10;;;7.10;99.90;;;;;;4973904;28;20053;-64
2022/05/05 02:49:20;;;;;;;8.77;5.00;;;7.10;99.90;;;;;;4976714;28;20049;-64
2022/05/05 02:51:46;;;;;;;13.55;5.80;;;7.10;99.90;;;;;;4976592;28;20050;-64
2022/05/05 02:56:56;;;;;;;8.93;5.70;;;7.10;99.90;;;;;;4991999;28;20133;-64
2022/05/05 02:59:21;;;;;;;11.15;6.00;;;7.20;99.90;;;;;;4993171;28;20049;-64
2022/05/05 03:01:47;;;;;;;15.38;6.32;;;7.20;99.90;;;;;;4974956;28;20046;-64
2022/05/05 03:04:13;;;;;;;14.80;6.13;;;7.20;99.90;;;;;;4994025;28;20049;-64
2022/05/05 03:06:38;;;;;;;11.48;5.53;;;7.10;99.90;;;;;;4975071;28;20133;-64
2022/05/05 03:09:04;;;;;;;15.02;5.43;;;7.20;99.90;;;;;;4992716;28;20038;-64
2022/05/05 03:11:30;;;;;;;8.80;5.40;;;7.10;99.90;;;;;;4975289;28;20037;-64
2022/05/05 03:13:55;;;;;;;6.47;4.40;;;7.10;99.90;;;;;;4992511;28;20603;-64
2022/05/05 03:16:21;;;;;;;6.97;4.32;;;7.10;99.90;;;;;;4974689;28;20536;-64
2022/05/05 03:18:47;;;;;;;9.15;4.80;;;7.10;99.90;;;;;;4975516;28;20058;-64
2022/05/05 03:21:12;;;;;;;7.55;5.00;;;7.10;99.90;;;;;;4994240;28;20034;-64
2022/05/05 03:23:38;;;;;;;11.95;5.53;;;7.10;99.90;;;;;;4972877;28;20042;-64
2022/05/05 03:26:03;;;;;;;13.35;5.10;;;7.10;99.90;;;;;;4995018;28;20040;-64
2022/05/05 03:28:30;;;;;;;13.00;6.40;;;7.00;99.90;;;;;;4975564;28;20172;-64
2022/05/05 03:30:55;;;;;;;7.40;5.28;;;7.00;99.90;;;;;;4976838;28;20049;-64
2022/05/05 03:33:21;;;;;;;10.20;5.35;;;6.90;99.90;;;;;;4992223;28;20123;-64
2022/05/05 03:35:46;;;;;;;9.23;5.55;;;7.00;99.90;;;;;;4994820;28;20132;-64
2022/05/05 03:38:12;;;;;;;10.52;5.43;;;6.90;99.90;;;;;;4977829;28;20046;-64
2022/05/05 03:40:37;;;;;;;12.90;6.97;;;6.90;99.90;;;;;;4998499;28;20042;-64
2022/05/05 03:43:04;;;;;;;9.75;7.00;;;6.80;99.90;;;;;;4977491;28;20049;-64
2022/05/05 03:45:29;;;;;;;19.58;8.20;;;6.80;99.90;;;;;;4995094;28;20050;-64
2022/05/05 03:47:55;;;;;;;15.40;5.57;;;6.80;99.90;;;;;;4994247;28;20077;-64
2022/05/05 03:50:20;;;;;;;11.20;5.97;;;6.70;99.90;;;;;;4975236;28;20041;-64
2022/05/05 03:52:46;;;;;;;45.60;8.98;;;6.80;99.90;;;;;;4993992;28;20045;-64
2022/05/05 03:55:11;;;;;;;11.65;5.38;;;6.70;99.90;;;;;;4980586;28;20077;-64
2022/05/05 03:57:37;;;;;;;9.18;6.45;;;6.70;99.90;;;;;;4977232;28;20516;-64
2022/05/05 04:00:04;;;;;;;15.65;7.15;;;6.70;99.90;;;;;;4978207;28;20049;-64
2022/05/05 04:02:30;;;;;;;13.68;6.72;;;6.70;99.90;;;;;;4978797;28;21093;-64
2022/05/05 04:04:55;;;;;;;14.32;5.78;;;6.60;99.90;;;;;;4979965;28;22233;-64
2022/05/05 04:07:21;;;;;;;12.32;6.00;;;6.60;99.90;;;;;;4995947;28;20038;-64
2022/05/05 04:09:47;;;;;;;14.07;5.97;;;7.50;99.90;;;;;;4978719;28;20061;-64
2022/05/05 04:12:12;;;;;;;12.02;5.60;;;6.70;99.90;;;;;;4978565;28;20042;-64
2022/05/05 04:14:38;;;;;;;11.13;6.15;;;6.60;99.90;;;;;;4979327;28;20050;-64
2022/05/05 04:17:04;;;;;;;13.32;7.03;;;6.70;99.90;;;;;;4978673;28;20124;-64
2022/05/05 04:19:29;;;;;;;10.13;6.32;;;6.60;99.90;;;;;;4975752;28;20045;-64
2022/05/05 04:21:55;;;;;;;10.85;7.03;;;6.50;99.90;;;;;;4977842;28;20100;-64
2022/05/05 04:24:21;;;;;;;18.17;5.97;;;6.50;99.90;;;;;;4995427;28;20921;-64
2022/05/05 04:26:47;;;;;;;28.38;6.90;;;6.50;99.90;;;;;;4995243;28;20575;-64
2022/05/05 04:29:13;;;;;;;14.43;6.10;;;6.50;99.90;;;;;;4976505;28;20042;-64
2022/05/05 04:31:39;;;;;;;11.10;7.38;;;6.60;99.90;;;;;;4980531;28;20064;-64
2022/05/05 04:34:06;;;;;;;16.70;7.28;;;6.60;99.90;;;;;;4980589;28;20045;-64
2022/05/05 04:36:35;;;;;;;22.55;7.47;;;6.60;99.90;;;;;;4999434;28;20117;-64
2022/05/05 04:39:05;;;;;;;11.73;6.97;;;6.60;99.90;;;;;;5001873;28;20033;-64
2022/05/05 04:41:31;;;;;;;8.68;6.65;;;6.60;99.90;;;;;;4993454;28;20046;-64
2022/05/05 04:43:57;;;;;;;12.88;7.18;;;6.60;99.90;;;;;;4996519;28;20888;-64
2022/05/05 04:46:22;;;;;;;18.85;7.13;;;6.70;99.90;;;;;;4995875;28;20030;-64
2022/05/05 04:48:48;;;;;;;8.75;5.85;;;6.70;99.90;;;;;;4976134;28;20037;-64
2022/05/05 04:51:14;;;;;;;9.40;5.72;;;6.70;99.90;;;;;;4978325;28;20041;-64
2022/05/05 04:53:40;;;;;;;9.38;5.93;;;6.70;99.90;;;;;;4978731;28;20034;-64
2022/05/05 04:56:06;;;;;;;12.10;5.97;;;6.80;99.90;;;;;;4999805;28;20045;-64
2022/05/05 04:58:35;;;;;;;15.93;7.32;;;6.80;99.90;;;;;;4994353;28;20073;-64
2022/05/05 05:01:01;;;;;;;12.07;6.40;;;6.80;99.90;;;;;;4976282;28;20053;-64
2022/05/05 05:03:32;;;;;;;11.27;6.47;;;6.80;99.90;;;;;;4976923;28;20076;-64
2022/05/05 05:05:58;;;;;;;12.18;7.30;;;6.80;99.90;;;;;;4977461;28;20138;-64
2022/05/05 05:08:23;;;;;;;11.25;7.88;;;6.80;99.90;;;;;;4996191;28;20026;-64
2022/05/05 05:10:49;;;;;;;12.40;7.65;;;6.80;99.90;;;;;;4974389;28;20077;-64
2022/05/05 05:13:14;;;;;;;13.30;8.95;;;6.90;99.90;;;;;;4974615;28;20072;-64
2022/05/05 05:15:40;;;;;;;12.02;7.88;;;6.90;99.90;;;;;;4992572;28;20050;-64
2022/05/05 05:18:06;;;;;;;15.23;8.57;;;7.00;99.90;;;;;;4976303;28;20121;-64
2022/05/05 05:20:31;;;;;;;14.05;8.18;;;7.10;99.90;;;;;;4993582;28;20046;-64
2022/05/05 05:22:57;;;;;;;22.48;8.75;;;7.30;99.90;;;;;;4992570;28;21087;-64
2022/05/05 05:25:22;;;;;;;16.75;8.98;;;7.50;99.90;;;;;;4992945;28;20117;-64
2022/05/05 05:27:48;;;;;;;13.25;7.88;;;7.80;99.90;;;;;;4990359;28;20041;-64
2022/05/05 05:30:13;;;;;;;17.83;8.82;;;8.10;99.90;;;;;;4996242;28;20066;-64
2022/05/05 05:32:39;;;;;;;12.27;7.03;;;8.40;99.90;;;;;;4993160;28;20066;-64
2022/05/05 05:35:05;;;;;;;13.10;6.60;;;8.90;99.90;;;;;;4973727;28;20542;-64
2022/05/05 05:37:31;;;;;;;13.82;6.43;;;9.90;99.90;;;;;;4989872;28;20050;-65
2022/05/05 05:39:56;;;;;;;10.68;6.10;;;11.40;99.90;;;;;;4973017;28;20128;-65
2022/05/05 05:42:22;;;;;;;9.10;5.85;;;12.70;99.90;;;;;;4974204;28;20631;-65
2022/05/05 05:44:48;;;;;;;15.25;6.15;;;13.90;99.90;;;;;;4972725;28;20038;-65
2022/05/05 05:47:13;;;;;;;7.80;5.32;;;14.90;99.90;;;;;;4995472;28;20154;-65
2022/05/05 05:49:39;;;;;;;12.05;5.65;;;15.40;99.90;;;;;;4971740;28;20540;-65
2022/05/05 05:52:05;;;;;;;15.02;5.40;;;15.50;99.90;;;;;;4990886;28;20049;-65
2022/05/05 05:54:30;;;;;;;11.88;5.82;;;15.30;99.90;;;;;;4970886;28;20053;-65
2022/05/05 05:56:56;;;;;;;12.25;6.07;;;15.00;99.90;;;;;;4975872;28;20050;-65
2022/05/05 05:59:21;;;;;;;15.25;7.78;;;14.70;99.90;;;;;;4992437;28;20041;-65
2022/05/05 06:04:31;;;;;;;12.40;5.60;;;13.90;99.90;;;;;;4972237;28;20049;-64
2022/05/05 06:06:57;;;;;;;19.33;7.38;;;13.60;99.90;;;;;;4996436;28;22221;-64
2022/05/05 06:09:23;;;;;;;11.65;6.80;;;13.50;99.90;;;;;;4986902;28;20066;-65
2022/05/05 06:11:48;;;;;;;5.90;5.30;;;13.20;99.90;;;;;;4973432;28;20085;-65
2022/05/05 06:14:14;;;;;;;12.80;6.28;;;13.20;99.90;;;;;;4992730;28;20640;-65
2022/05/05 06:16:40;;;;;;;12.45;6.85;;;13.30;99.90;;;;;;4973943;28;20045;-64
2022/05/05 06:19:06;;;;;;;14.05;5.80;;;13.50;99.90;;;;;;4990404;28;20088;-65
2022/05/05 06:21:31;;;;;;;13.68;6.55;;;13.80;99.90;;;;;;4988886;28;20539;-65
2022/05/05 06:23:57;;;;;;;14.73;6.15;;;14.10;99.90;;;;;;4970327;28;20082;-65
2022/05/05 06:26:23;;;;;;;19.85;6.68;;;14.40;99.90;;;;;;4993220;28;20050;-65
2022/05/05 06:28:49;;;;;;;16.02;6.85;;;14.70;99.90;;;;;;4973089;28;20080;-64
2022/05/05 06:31:16;;;;;;;16.00;6.22;;;14.90;99.90;;;;;;4991696;28;20439;-65
2022/05/05 06:33:43;;;;;;;13.05;5.72;;;15.20;99.90;;;;;;4974797;28;20046;-65
2022/05/05 06:36:08;;;;;;;14.02;5.35;;;15.30;99.90;;;;;;4973268;28;20995;-65
2022/05/05 06:38:34;;;;;;;13.80;5.57;;;15.60;99.60;;;;;;4972228;28;20045;-65
2022/05/05 06:41:00;;;;;;;14.27;6.28;;;15.80;98.40;;;;;;4971585;28;20084;-65
2022/05/05 06:43:26;;;;;;;13.55;5.53;;;16.00;98.20;;;;;;4975298;28;20034;-65
2022/05/05 06:45:52;;;;;;;13.15;6.05;;;16.30;97.70;;;;;;4991220;28;20077;-65
2022/05/05 06:48:17;;;;;;;9.45;5.28;;;16.50;95.60;;;;;;4976532;28;20109;-65
2022/05/05 06:50:43;;;;;;;14.13;5.72;;;16.50;96.20;;;;;;4999445;28;20045;-65
2022/05/05 06:53:09;;;;;;;11.85;5.03;;;16.40;94.80;;;;;;4977580;28;20138;-65
2022/05/05 06:55:34;;;;;;;18.15;5.60;;;16.40;95.50;;;;;;4979153;28;20107;-64
2022/05/05 06:58:00;;;;;;;7.25;5.47;;;16.40;95.20;;;;;;4991721;28;20132;-65
2022/05/05 07:01:51;;;;;;;14.48;5.25;;;16.30;94.70;;;;;;4976266;28;20076;-65
2022/05/05 07:03:11;;;;;;;8.75;3.80;;;16.20;95.30;;;;;;4992763;28;20046;-64
2022/05/05 07:05:37;;;;;;;11.10;5.18;;;16.10;95.20;;;;;;4976536;28;20034;-65
2022/05/05 07:08:03;;;;;;;12.57;4.72;;;16.00;95.30;;;;;;4979092;28;20042;-64
2022/05/05 07:13:14;;;;;;;8.73;3.75;;;15.80;94.50;;;;;;5003655;28;20041;-64
2022/05/05 07:15:40;;;;;;;9.77;4.07;;;15.80;94.50;;;;;;5001126;28;20143;-64
2022/05/05 07:18:06;;;;;;;13.07;4.03;;;15.80;94.60;;;;;;5003106;28;20041;-64
2022/05/05 07:20:32;;;;;;;12.77;5.60;;;15.80;94.30;;;;;;4985854;28;20050;-65
2022/05/05 07:22:58;;;;;;;9.23;5.40;;;15.80;94.10;;;;;;5003442;28;20038;-65
2022/05/05 07:25:24;;;;;;;15.90;5.53;;;15.80;94.10;;;;;;5005463;28;20088;-65
2022/05/05 07:27:50;;;;;;;13.43;5.35;;;15.80;94.70;;;;;;5006239;28;20534;-65
2022/05/05 07:30:16;;;;;;;11.35;5.00;;;15.70;94.90;;;;;;4990723;28;20053;-65
2022/05/05 07:32:42;;;;;;;11.27;4.85;;;15.70;94.70;;;;;;4978023;28;20038;-65
2022/05/05 07:35:09;;;;;;;10.95;4.25;;;15.80;95.00;;;;;;4990650;28;20042;-65
2022/05/05 07:37:36;;;;;;;13.02;4.82;;;15.90;94.10;;;;;;5001366;28;20049;-65
2022/05/05 07:40:03;;;;;;;8.32;4.38;;;15.90;94.00;;;;;;4999267;28;20050;-65
2022/05/05 07:42:29;;;;;;;10.00;4.20;;;15.90;93.50;;;;;;4983039;28;20081;-65
2022/05/05 07:44:54;;;;;;;12.05;5.68;;;16.00;93.80;;;;;;4984023;28;20057;-65
2022/05/05 07:47:20;;;;;;;12.93;5.32;;;16.00;93.40;;;;;;4985664;28;20034;-65
2022/05/05 07:49:45;;;;;;;14.13;4.72;;;16.00;93.20;;;;;;4986574;28;20045;-65
2022/05/05 07:52:11;;;;;;;12.93;4.10;;;16.00;92.80;;;;;;5005025;28;20045;-65
2022/05/05 07:54:43;;;;;;;16.27;4.97;;;16.00;91.70;;;;;;5001216;28;20045;-65
2022/05/05 07:57:11;;;;;;;16.08;4.72;;;16.00;92.30;;;;;;4985060;28;20133;-65
2022/05/05 07:59:38;;;;;;;20.60;5.32;;;16.10;91.10;;;;;;4976284;28;20053;-65
2022/05/05 08:02:04;;;;;;;19.73;4.22;;;16.10;92.30;;;;;;4976832;28;20056;-65
2022/05/05 08:04:31;;;;;;;15.68;4.93;;;16.20;92.10;;;;;;4975134;28;20080;-65
2022/05/05 08:06:57;;;;;;;14.00;4.68;;;16.30;91.60;;;;;;4981896;28;21724;-65
2022/05/05 08:09:23;;;;;;;11.70;4.55;;;16.30;91.60;;;;;;4970797;28;20073;-65
2022/05/05 08:11:48;;;;;;;11.45;5.40;;;16.30;91.00;;;;;;4994133;28;20076;-65
2022/05/05 08:14:14;;;;;;;12.20;4.68;;;16.40;91.70;;;;;;4977696;28;20935;-65
2022/05/05 08:16:40;;;;;;;11.38;4.78;;;16.40;91.10;;;;;;4995456;28;20038;-65
2022/05/05 08:19:06;;;;;;;13.23;4.63;;;16.60;90.70;;;;;;4978664;28;20076;-64
2022/05/05 08:21:32;;;;;;;7.72;3.47;;;16.50;90.40;;;;;;4979727;28;20100;-65
2022/05/05 08:29:31;;;;;;;9.07;4.32;;;17.00;90.70;;;;;;5001852;28;20045;-65
2022/05/05 08:31:57;;;;;;;8.68;3.08;;;17.20;90.10;;;;;;5004465;28;20049;-65
2022/05/05 08:34:23;;;;;;;10.70;4.40;;;17.40;88.60;;;;;;5004929;28;20056;-65
2022/05/05 08:36:48;;;;;;;8.07;3.78;;;17.30;88.10;;;;;;4990706;28;20053;-65
2022/05/05 08:39:14;;;;;;;11.10;4.47;;;17.40;88.30;;;;;;4984733;28;20077;-65
2022/05/05 08:41:40;;;;;;;9.15;3.97;;;17.50;89.10;;;;;;4986753;28;20137;-65
2022/05/05 08:44:07;;;;;;;10.27;4.38;;;17.50;88.40;;;;;;4983659;28;20054;-65
2022/05/05 08:46:34;;;;;;;11.13;4.78;;;17.50;88.20;;;;;;5006153;28;20136;-65
2022/05/05 08:49:07;;;;;;;8.98;4.85;;;17.70;89.00;;;;;;4987404;28;20038;-65
2022/05/05 08:51:44;;;;;;;12.85;4.10;;;17.80;89.00;;;;;;5005298;28;20046;-65
2022/05/05 08:54:16;;;;;;;16.05;4.65;;;17.80;90.50;;;;;;5005869;28;20042;-65
2022/05/05 08:56:43;;;;;;;9.98;5.28;;;17.90;89.40;;;;;;5004971;28;20107;-65
2022/05/05 08:59:09;;;;;;;10.07;5.05;;;17.90;90.00;;;;;;5004226;28;20440;-65
2022/05/05 09:01:38;;;;;;;9.60;4.55;;;18.20;90.20;;;;;;5003566;28;20511;-65
2022/05/05 09:04:08;;;;;;;13.02;5.32;;;18.40;90.00;;;;;;4971619;28;20068;-65
2022/05/05 09:06:41;;;;;;;9.70;5.00;;;18.70;90.20;;;;;;5002900;28;20034;-65
2022/05/05 09:09:31;;;;;;;7.38;5.18;;;18.90;90.80;;;;;;4984099;28;20108;-65
2022/05/05 09:12:14;;;;;;;7.50;4.53;;;19.00;88.80;;;;;;5003263;28;20050;-65
2022/05/05 09:14:46;;;;;;;9.05;5.03;;;19.20;87.70;;;;;;5003992;28;20401;-65
2022/05/05 09:17:17;;;;;;;8.85;5.20;;;19.30;85.40;;;;;;4984259;28;20539;-65
2022/05/05 09:19:49;;;;;;;8.13;5.10;;;19.50;85.40;;;;;;4986669;28;20046;-65
2022/05/05 09:22:17;;;;;;;13.95;6.05;;;19.70;86.50;;;;;;4985748;28;20133;-65
2022/05/05 09:24:46;;;;;;;9.98;5.38;;;19.80;83.50;;;;;;4987503;28;20053;-65
2022/05/05 09:27:15;;;;;;;9.52;5.35;;;19.70;80.50;;;;;;4986254;28;20033;-65
2022/05/05 09:29:41;;;;;;;8.43;5.50;;;19.70;81.90;;;;;;5004172;28;20225;-65
2022/05/05 09:32:11;;;;;;;11.90;6.00;;;19.50;80.10;;;;;;4984950;28;20042;-65
2022/05/05 09:34:38;;;;;;;9.52;5.55;;;19.40;77.40;;;;;;4987150;28;20060;-65
2022/05/05 09:37:20;;;;;;;8.32;5.00;;;19.20;77.60;;;;;;5005553;28;20057;-65
2022/05/05 09:39:46;;;;;;;12.18;5.20;;;19.20;81.50;;;;;;5000548;28;20072;-65
2022/05/05 09:42:19;;;;;;;7.22;5.05;;;19.20;81.70;;;;;;4986335;28;20045;-65
2022/05/05 09:44:45;;;;;;;14.40;6.20;;;19.30;80.70;;;;;;5002097;28;20176;-65
2022/05/05 09:47:15;;;;;;;12.63;6.72;;;19.40;78.60;;;;;;5005312;28;20510;-65
2022/05/05 09:49:40;;;;;;;11.27;6.22;;;19.50;76.90;;;;;;4984180;28;20052;-65
2022/05/05 09:57:40;;;;;;;8.32;5.65;;;19.70;75.30;;;;;;5002306;28;20476;-65
2022/05/05 10:00:19;;;;;;;9.73;5.78;;;19.70;78.30;;;;;;4986206;28;20120;-65
2022/05/05 10:05:32;;;;;;;10.82;5.75;;;20.00;78.70;;;;;;5001874;28;20070;-65
2022/05/05 10:07:58;;;;;;;9.35;5.43;;;20.10;76.50;;;;;;5003646;28;20037;-65
2022/05/05 10:10:24;;;;;;;15.00;5.15;;;20.10;77.40;;;;;;4998227;28;20057;-65
2022/05/05 10:12:51;;;;;;;9.32;6.03;;;20.10;77.70;;;;;;5001707;28;20092;-65
2022/05/05 10:15:17;;;;;;;11.07;5.93;;;20.20;71.70;;;;;;4983394;28;20057;-65
2022/05/05 10:17:44;;;;;;;8.13;5.82;;;20.00;72.40;;;;;;5002922;28;20417;-65
2022/05/05 10:20:12;;;;;;;10.63;5.75;;;19.90;74.70;;;;;;5002131;28;20404;-65
2022/05/05 10:22:50;;;;;;;9.07;5.18;;;19.80;74.70;;;;;;5002696;28;20041;-65
2022/05/05 10:25:26;;;;;;;12.25;4.88;;;19.90;75.20;;;;;;5001301;28;20049;-65
2022/05/05 10:27:52;;;;;;;9.68;6.00;;;20.00;75.00;;;;;;4999600;28;20392;-65
2022/05/05 10:30:34;;;;;;;8.85;5.00;;;20.10;73.50;;;;;;4999722;28;20046;-65
2022/05/05 10:33:03;;;;;;;6.47;4.78;;;20.20;74.30;;;;;;5001169;28;20131;-65
2022/05/05 10:35:45;;;;;;;5.40;4.45;;;20.30;75.30;;;;;;4982720;28;20074;-65
2022/05/05 10:38:42;;;;;;;8.73;4.97;;;20.40;71.70;;;;;;4984383;28;20063;-65
2022/05/05 10:41:29;;;;;;;6.20;4.63;;;20.30;71.60;;;;;;4984205;28;20101;-65
2022/05/05 10:44:16;;;;;;;7.97;3.80;;;20.40;67.30;;;;;;4983396;28;20049;-66
2022/05/05 10:46:51;;;;;;;6.32;4.30;;;20.30;70.90;;;;;;4984933;28;20100;-65
2022/05/05 10:52:16;;;;;;;7.35;4.65;;;20.50;72.20;;;;;;4985716;28;20492;-65
2022/05/05 10:54:42;;;;;;;6.65;4.95;;;20.70;72.50;;;;;;4982041;28;20038;-65
2022/05/05 10:57:26;;;;;;;7.25;4.95;;;20.70;72.20;;;;;;4982868;28;20050;-65
2022/05/05 11:00:13;;;;;;;5.97;4.10;;;20.70;69.90;;;;;;5000051;28;20046;-65
2022/05/05 11:03:00;;;;;;;7.70;4.47;;;20.60;69.00;;;;;;4982344;28;20054;-65
2022/05/05 11:05:33;;;;;;;8.02;4.43;;;20.60;70.40;;;;;;4985383;28;20463;-63
2022/05/05 11:08:24;;;;;;;6.45;4.10;;;20.70;72.60;;;;;;4999249;28;20521;-63
2022/05/05 11:13:40;;;;;;;7.15;4.00;;;20.70;67.20;;;;;;4978999;28;20046;-63
2022/05/05 11:22:15;;;;;;;9.73;4.45;;;20.80;67.10;;;;;;4998838;28;20316;-63
2022/05/05 11:24:46;;;;;;;7.45;5.20;;;20.80;67.10;;;;;;4996983;28;20033;-63
2022/05/05 11:27:14;;;;;;;9.38;5.32;;;20.80;65.20;;;;;;4984353;28;20049;-63
2022/05/05 11:29:40;;;;;;;10.30;5.75;;;20.70;66.00;;;;;;4998654;28;20041;-63
2022/05/05 11:32:06;;;;;;;7.03;4.95;;;20.70;67.60;;;;;;5002495;28;20464;-63
2022/05/05 11:34:37;;;;;;;9.07;5.32;;;20.90;68.70;;;;;;5001876;28;20060;-65
2022/05/05 11:37:05;;;;;;;8.70;5.13;;;20.90;69.00;;;;;;4951449;28;20049;-65
2022/05/05 11:39:33;;;;;;;7.15;4.90;;;20.90;68.60;;;;;;4987210;28;20054;-65
2022/05/05 11:42:03;;;;;;;7.63;4.88;;;21.00;69.70;;;;;;4986079;28;20074;-65
2022/05/05 11:44:29;;;;;;;8.85;5.43;;;21.10;66.30;;;;;;4987070;28;20050;-65
2022/05/05 11:46:57;;;;;;;11.73;4.80;;;21.10;67.00;;;;;;5002364;28;20046;-65
2022/05/05 11:49:33;;;;;;;7.90;5.25;;;21.20;69.40;;;;;;4985024;28;20084;-65
2022/05/05 11:51:59;;;;;;;11.07;5.30;;;21.20;67.60;;;;;;5004142;28;20034;-65
2022/05/05 11:54:27;;;;;;;9.15;4.68;;;21.30;68.70;;;;;;4988774;28;20141;-65
2022/05/05 11:56:54;;;;;;;4.95;4.28;;;21.50;68.10;;;;;;5008739;28;20160;-65
2022/05/05 12:02:13;;;;;;;9.38;4.90;;;21.60;67.50;;;;;;4993600;28;20050;-65
2022/05/05 12:04:49;;;;;;;9.27;4.95;;;21.80;70.20;;;;;;4990562;28;20046;-65
2022/05/05 12:07:22;;;;;;;7.72;5.38;;;21.80;68.30;;;;;;4993074;28;20041;-65
2022/05/05 12:09:53;;;;;;;9.05;4.55;;;21.60;67.70;;;;;;5005550;28;20140;-65
2022/05/05 12:12:23;;;;;;;8.93;5.75;;;21.60;70.40;;;;;;5012459;28;20088;-65
2022/05/05 12:15:00;;;;;;;11.38;5.28;;;21.50;70.20;;;;;;4993741;28;20220;-65
2022/05/05 12:17:39;;;;;;;5.72;4.50;;;21.40;65.70;;;;;;4993059;28;20046;-65
2022/05/05 12:20:07;;;;;;;9.43;5.00;;;21.40;69.50;;;;;;4985518;28;20058;-63
2022/05/05 12:22:38;;;;;;;9.00;5.28;;;21.60;70.80;;;;;;4983776;28;20124;-63
2022/05/05 12:25:13;;;;;;;11.40;5.10;;;21.50;73.40;;;;;;4994224;28;20052;-63
2022/05/05 12:27:39;;;;;;;11.45;5.32;;;21.50;72.30;;;;;;4985541;28;20050;-63
2022/05/05 12:30:06;;;;;;;9.93;4.15;;;21.60;71.90;;;;;;4997488;28;20103;-63
2022/05/05 12:32:31;;;;;;;5.55;4.20;;;21.80;74.70;;;;;;4983643;28;20049;-63
2022/05/05 12:35:07;;;;;;;6.85;4.70;;;21.90;73.10;;;;;;5001053;28;20061;-63
2022/05/05 12:37:33;;;;;;;9.48;4.80;;;22.10;70.80;;;;;;4968422;28;20042;-63
2022/05/05 12:40:06;;;;;;;7.07;3.53;;;22.30;72.50;;;;;;5004710;28;20442;-63
2022/05/05 12:42:39;;;;;;;8.48;4.05;;;22.50;71.60;;;;;;5001110;28;20065;-63
2022/05/05 12:45:11;;;;;;;4.95;3.65;;;22.60;68.90;;;;;;5005337;28;20189;-65
2022/05/05 12:47:45;;;;;;;8.73;4.32;;;22.80;70.70;;;;;;5003565;28;20096;-65
2022/05/05 12:50:32;;;;;;;6.65;4.25;;;22.80;69.20;;;;;;5007651;28;20064;-65
2022/05/05 13:01:23;;;;;;;6.55;4.30;;;22.60;69.00;;;;;;4987182;28;20046;-65
2022/05/05 13:03:54;;;;;;;6.28;3.97;;;22.60;67.20;;;;;;4986430;28;20052;-65
2022/05/05 13:06:21;;;;;;;6.03;3.60;;;22.50;66.20;;;;;;4986118;28;20053;-65
2022/05/05 13:08:47;;;;;;;8.95;4.40;;;22.50;67.40;;;;;;4987828;28;20038;-65
2022/05/05 13:11:14;;;;;;;8.38;4.20;;;22.40;69.00;;;;;;5002987;28;20396;-66
2022/05/05 13:13:40;;;;;;;6.45;3.63;;;22.30;67.90;;;;;;5003646;28;20037;-65
2022/05/05 13:16:06;;;;;;;5.90;3.65;;;22.20;67.30;;;;;;4987868;28;20049;-65
2022/05/05 13:18:32;;;;;;;8.85;4.25;;;22.20;69.30;;;;;;5003105;28;20053;-66
2022/05/05 13:20:57;;;;;;;7.65;4.75;;;22.20;69.30;;;;;;5004298;28;20046;-65
2022/05/05 13:23:23;;;;;;;6.03;3.70;;;22.20;68.60;;;;;;4984838;28;20835;-65
2022/05/05 13:25:49;;;;;;;10.60;4.35;;;22.20;68.00;;;;;;4987527;28;20519;-65
2022/05/05 13:28:15;;;;;;;9.23;4.38;;;22.20;66.50;;;;;;5004630;28;20046;-63
2022/05/05 13:30:40;;;;;;;6.40;4.25;;;22.30;66.30;;;;;;4986306;28;20095;-63
2022/05/05 13:33:06;;;;;;;6.22;4.50;;;22.40;64.50;;;;;;4991770;28;20037;-63
2022/05/05 13:35:32;;;;;;;6.75;5.07;;;22.20;63.10;;;;;;5006203;28;20122;-63
2022/05/05 13:38:00;;;;;;;4.93;3.83;;;22.00;62.80;;;;;;4987339;28;20120;-63
2022/05/05 13:40:26;;;;;;;4.95;4.00;;;22.00;63.30;;;;;;5002097;28;20046;-63
2022/05/05 13:42:52;;;;;;;4.82;3.83;;;22.10;66.00;;;;;;4988722;28;20125;-63